Snake Valley, Nevada Weather observations

Data are for 10 minute period ending at time listed.
 Day   Time   Solar   Ave.   Ave.  Ave.  Vector  Max.   Baro.   Total    
  of    of     Rad.   Air    Rel.  Wind   Wind   Wind  Press.  Precip.   
Year   Day            Temp.  Hum.  Speed  Dir.   Gust                    
2017   (PST)  Kw/m2    F      %     mph   deg.    mph    mb.     in.     
-------------------------------------------------------------------------
  35   20:50   0.00   33.5    85    1.3   285     2.7   839.9    0.00 
  35   21:00   0.00   33.4    86    1.8   296     4.4   839.9    0.00 
  35   21:10   0.00   32.7    87    3.3   356     5.1   839.9    0.00 
  35   21:20   0.00   32.7    87    2.5   317     4.7   840.0    0.00 
  35   21:30   0.00   32.8    88    2.0   350     5.0   840.1    0.00 
  35   21:40   0.00   32.0    88    3.4   328     8.7   840.0    0.00 
  35   21:50   0.00   32.1    88    2.2    19     5.6   840.0    0.00 
  35   22:00   0.00   31.8    88    2.0   295     5.4   840.2    0.00 
  35   22:10   0.00   32.3    88    2.5   341     6.2   840.2    0.00 
  35   22:20   0.00   32.3    88    3.4   309     8.3   840.3    0.00 
  35   22:30   0.00   32.7    87    3.6   151     7.5   840.4    0.00 
  35   22:40   0.00   33.3    86    2.1   146     6.4   840.3    0.00 
  35   22:50   0.00   32.3    85    3.9   189     7.4   840.4    0.00 
  35   23:00   0.00   32.0    86    3.1   240     5.5   840.4    0.00 
  35   23:10   0.00   32.3    84    2.6   311     4.2   840.5    0.00 
  35   23:20   0.00   32.0    85    4.7   338     6.8   840.6    0.00 
  35   23:30   0.00   32.0    87    2.3   307     3.7   840.6    0.00 
  35   23:40   0.00   32.4    86    1.6   206     3.5   840.5    0.00 
  35   23:50   0.00   30.6    88    2.6   258     3.9   840.7    0.00 
  36    0:00   0.00   31.0    89    2.6   269     4.2   840.6    0.00 
  36    0:10   0.00   30.7    88    1.7   257     3.1   840.6    0.00 
  36    0:20   0.00   30.0    88    1.7   243     3.1   840.6    0.00 
  36    0:30   0.00   31.0    88    1.3   227     3.3   840.6    0.00 
  36    0:40   0.00   33.5    85    3.1   178     5.8   840.6    0.00 
  36    0:50   0.00   33.7    83    4.2   181     6.2   840.5    0.00 
  36    1:00   0.00   30.9    85    4.3   222     6.7   840.5    0.00 
  36    1:10   0.00   30.5    88    3.0   257     6.6   840.5    0.00 
  36    1:20   0.00   34.4    82    4.9   145     8.0   840.5    0.00 
  36    1:30   0.00   35.2    80    3.8   175     5.5   840.5    0.00 
  36    1:40   0.00   34.1    82    2.7   207     5.9   840.5    0.00 
  36    1:50   0.00   34.4    82    0.7   216     3.8   840.6    0.00 
  36    2:00   0.00   32.2    83    4.3   353     7.2   840.6    0.00 
  36    2:10   0.00   32.3    85    4.1   327     8.3   840.6    0.00 
  36    2:20   0.00   32.3    84    3.1   326     7.1   840.7    0.00 
  36    2:30   0.00   31.2    86    2.2   332     4.5   840.7    0.00 
  36    2:40   0.00   30.7    87    2.4   263     7.3   840.7    0.00 
  36    2:50   0.00   30.2    88    4.2   293     7.6   840.6    0.00 
  36    3:00   0.00   29.5    89    2.0   264     4.0   840.6    0.00 
  36    3:10   0.00   29.1    90    3.1   193     5.8   840.6    0.00 
  36    3:20   0.00   30.3    90    3.4   147     7.3   840.6    0.00 
  36    3:30   0.00   30.8    84    3.4   285     8.4   840.5    0.00 
  36    3:40   0.00   30.9    86    4.5   192    10.7   840.4    0.00 
  36    3:50   0.00   31.8    84    3.3   249     8.0   840.3    0.00 
  36    4:00   0.00   30.8    83    1.3   311     3.6   840.5    0.00 
  36    4:10   0.00   30.0    87    1.4   112     6.4   840.5    0.00 
  36    4:20   0.00   29.8    86    2.3   260     5.0   840.5    0.00 
  36    4:30   0.00   30.1    88    2.2   237     4.8   840.4    0.00 
  36    4:40   0.00   32.3    84    3.0   178     6.4   840.2    0.00 
  36    4:50   0.00   31.1    85    4.6   204     7.1   840.1    0.00 
  36    5:00   0.00   31.3    85    3.8   221     5.8   840.1    0.00 
  36    5:10   0.00   34.0    81    4.2   197     7.2   840.0    0.00 
  36    5:20   0.00   34.1    79    3.3   202     5.3   840.0    0.00 
  36    5:30   0.00   34.3    81    4.9   195    10.7   840.1    0.00 
  36    5:40   0.00   34.5    79    6.6   192    10.5   840.2    0.00 
  36    5:50   0.00   33.4    79    4.6   220     7.3   840.3    0.00 
  36    6:00   0.00   31.6    79    3.6   262     6.2   840.4    0.00 
  36    6:10   0.00   31.2    84    4.1   233     6.2   840.3    0.00 
  36    6:20   0.00   32.5    82    4.7   204     7.1   840.2    0.00 
  36    6:30   0.00   33.1    81    4.0   232     6.4   840.3    0.00 
  36    6:40   0.00   33.2    82    4.1   240     8.9   840.3    0.00 
  36    6:50   0.01   35.0    78    5.7   221     8.0   840.3    0.00 
  36    7:00   0.03   34.7    79    4.5   219     6.7   840.3    0.00 
  36    7:10   0.05   35.7    77    6.7   200     9.7   840.4    0.00 
  36    7:20   0.08   35.6    76    5.3   231     7.6   840.5    0.00 
  36    7:30   0.09   36.9    73    3.7   248     8.4   840.6    0.00 
  36    7:40   0.07   36.7    73    1.5   264     5.9   840.6    0.00 
  36    7:50   0.12   36.9    73    3.3   319     5.2   840.7    0.00 
  36    8:00   0.17   37.6    72    2.7   301     4.7   840.9    0.00 
  36    8:10   0.17   36.0    79    3.9   253     5.3   840.8    0.00 
  36    8:20   0.16   36.7    77    2.9   195     5.1   840.9    0.00 
  36    8:30   0.23   38.4    73    0.6    44     2.6   841.1    0.00 
  36    8:40   0.23   40.5    69    3.3   177     8.2   841.0    0.00 
  36    8:50   0.23   40.6    70    2.8   224     4.9   841.1    0.00 
  36    9:00   0.19   40.4    70    5.2   204     7.2   841.2    0.00 
  36    9:10   0.25   40.8    71    5.4   181     7.9   841.3    0.00 
  36    9:20   0.25   41.6    69    4.9   171     8.0   841.2    0.00 
  36    9:30   0.28   41.4    68    5.5   187    10.0   841.2    0.00 
  36    9:40   0.37   42.3    65    4.5   196     7.6   841.2    0.00 
  36    9:50   0.42   43.6    64    5.6   192    11.3   841.4    0.00 
  36   10:00   0.36   43.9    66    8.2   175    12.9   841.3    0.00 
  36   10:10   0.40   44.2    66    9.1   167    14.1   841.3    0.00 
  36   10:20   0.38   44.6    66    9.0   173    13.7   841.3    0.00 
  36   10:30   0.35   45.1    65    9.7   172    14.3   841.2    0.00 
  36   10:40   0.33   45.4    65    9.3   169    13.3   841.2    0.00 
  36   10:50   0.34   45.6    65    9.6   164    13.9   840.9    0.00 
  36   11:00   0.34   45.9    65   11.7   160    15.4   840.8    0.00 
  36   11:10   0.40   46.6    62   10.1   162    14.7   840.7    0.00 
  36   11:20   0.40   47.4    62    8.3   160    12.6   840.4    0.00 
  36   11:30   0.47   48.1    58    6.4   203    10.3   840.2    0.00 
  36   11:40   0.50   48.2    52    6.5   235     8.8   840.1    0.00 
  36   11:50   0.46   48.7    50    5.0   233     9.6   839.9    0.00 
  36   12:00   0.50   49.7    58   10.0   159    17.0   839.7    0.00 
  36   12:10   0.56   50.3    58   13.6   159    17.8   839.5    0.00 
  36   12:20   0.48   50.3    57   15.1   150    21.4   839.3    0.00 
  36   12:30   0.53   50.3    57   15.1   150    20.7   839.0    0.00 
  36   12:40   0.54   50.8    57   14.0   144    19.1   838.9    0.00 
  36   12:50   0.54   51.8    52    7.9   176    14.6   838.6    0.00 
  36   13:00   0.59   51.9    50    7.3   275    10.2   838.5    0.00 
  36   13:10   0.56   52.2    47    5.6   290    10.6   838.2    0.00 
  36   13:20   0.42   52.1    45    3.8   281     6.5   838.0    0.00 
  36   13:30   0.52   52.6    44    2.8   324     5.3   837.8    0.00 
  36   13:40   0.51   53.6    42    3.4   308     6.7   837.6    0.00 
  36   13:50   0.49   53.9    41    2.9   282     7.3   837.4    0.00 
  36   14:00   0.34   53.3    45    7.8   203    14.2   837.3    0.00 
  36   14:10   0.24   52.2    49   15.6   170    23.8   837.0    0.00 
  36   14:20   0.24   52.1    46    7.1   210    14.8   836.9    0.00 
  36   14:30   0.24   52.7    42    3.0   262     6.7   836.8    0.00 
  36   14:40   0.18   52.4    48    8.0   180    14.1   836.8    0.00 
  36   14:50   0.14   51.5    48    9.9   194    15.1   836.6    0.00 
  36   15:00   0.12   51.0    49    9.2   211    13.3   836.5    0.00 
  36   15:10   0.11   51.4    47    4.5   221     6.9   836.4    0.00 
  36   15:20   0.11   51.1    48    9.0   184    19.3   836.3    0.00 
  36   15:30   0.13   50.3    51   13.6   182    18.7   836.2    0.00 
  36   15:40   0.12   49.8    52   14.7   166    20.3   836.2    0.00 
  36   15:50   0.10   49.2    54   12.5   153    17.8   835.9    0.00 
  36   16:00   0.08   48.7    56    9.4   155    13.0   835.9    0.00 
  36   16:10   0.09   48.3    57    9.3   149    13.1   835.9    0.00 
  36   16:20   0.06   48.2    56   13.3   152    21.2   835.7    0.00 
  36   16:30   0.05   48.2    56   11.1   161    23.0   835.7    0.00 
  36   16:40   0.03   48.6    53   12.9   141    20.2   835.7    0.00 
  36   16:50   0.02   48.6    51   11.7   150    22.1   835.6    0.00 
  36   17:00   0.01   49.3    46   11.1   135    20.0   835.5    0.00 
  36   17:10   0.00   49.9    41    7.9   160    20.9   835.5    0.00 
  36   17:20   0.00   48.7    48    8.9   163    18.2   835.5    0.00 
  36   17:30   0.00   47.4    50    6.6   116    14.8   835.5    0.00 
  36   17:40   0.00   46.9    52    7.3    82    17.4   835.5    0.00 
  36   17:50   0.00   46.1    53    4.4   160    14.5   835.4    0.00 
  36   18:00   0.00   47.0    47   12.1   201    17.6   835.2    0.00 
  36   18:10   0.00   48.8    40   14.0   195    22.3   835.2    0.00 
  36   18:20   0.00   48.8    40   11.3   187    28.9   835.4    0.00 
  36   18:30   0.00   49.0    41    7.3   189    21.1   835.5    0.00 
  36   18:40   0.00   47.2    50   20.3   179    28.9   835.2    0.00 
  36   18:50   0.00   47.0    50   20.0   179    26.5   835.3    0.00 
  36   19:00   0.00   47.0    49   17.9   178    24.9   835.5    0.00 
  36   19:10   0.00   48.0    45   14.7   187    23.4   835.5    0.00 
  36   19:20   0.00   46.6    51   14.8   170    22.7   835.5    0.00 
  36   19:30   0.00   45.9    53   17.1   161    25.3   835.3    0.00 
  36   19:40   0.00   45.4    55   18.0   160    25.2   835.1    0.00 
  36   19:50   0.00   45.1    56   18.1   162    24.0   835.0    0.00 
  36   20:00   0.00   44.5    58   15.4   158    22.3   835.0    0.00 
  36   20:10   0.00   44.0    60   14.3   158    19.1   834.9    0.00 
  36   20:20   0.00   43.8    60   14.8   160    21.0   834.7    0.00 
  36   20:30   0.00   44.4    56   17.0   158    23.8   834.4    0.00 
  36   20:40   0.00   44.3    56   19.1   161    24.9   834.4    0.00 

Return to Snake Valley graphs page.


Western Regional Climate Center,wrcc@dri.edu